Time;durP1;ratioP1;P1;durP2;ratioP2;P2;SDS_P1;SDS_P2;PMS_P1;PMS_P2;Temp;Humidity;BMP_temperature;BMP_pressure;BME280_temperature;BME280_humidity;BME280_pressure;Samples;Min_cycle;Max_cycle;Signal;HPM_P1;HPM_P2
2023/10/17 04:05:17;;;;;;;12.18;3.95;;;;;;;6.36;74.17;101120.97;5608861;31;75722;-60
2023/10/17 04:08:26;;;;;;;6.37;3.65;;;;;;;6.36;74.17;101120.97;5590117;31;33149;-60
2023/10/17 04:14:09;;;;;;;7.68;3.62;;;;;;;6.34;80.22;101120.38;5603861;31;80577;-60
2023/10/17 04:17:15;;;;;;;;;;;;;;;6.34;80.22;101120.38;5595615;31;33340;-60
2023/10/17 04:20:17;;;;;;;7.78;3.72;;;;;;;5.97;76.31;101125.16;5583214;31;33891;-60
2023/10/17 04:23:26;;;;;;;7.07;3.87;;;;;;;5.94;76.46;101134.41;5590036;31;33643;-60
2023/10/17 04:26:45;;;;;;;7.35;3.50;;;;;;;6.03;100.00;101133.03;5598802;31;33677;-60
2023/10/17 04:29:50;;;;;;;9.75;3.50;;;;;;;6.09;80.31;101134.78;5595348;31;33681;-60
2023/10/17 04:32:53;;;;;;;9.30;3.53;;;;;;;5.95;90.04;101136.00;5601895;31;34230;-60
2023/10/17 04:35:59;;;;;;;6.22;3.62;;;;;;;5.87;79.21;101128.37;5587883;31;33854;-60
2023/10/17 04:39:18;;;;;;;7.68;3.67;;;;;;;5.88;76.96;101129.97;5597333;31;34231;-60
2023/10/17 04:43:10;;;;;;;5.28;3.17;;;;;;;6.01;79.20;101132.44;5587451;31;33189;-60
2023/10/17 04:45:55;;;;;;;5.68;3.62;;;;;;;5.99;76.61;101133.69;5583586;31;33644;-60
2023/10/17 04:49:09;;;;;;;7.97;3.20;;;;;;;6.11;94.34;101134.53;5589609;31;34219;-60
2023/10/17 04:52:19;;;;;;;9.05;4.37;;;;;;;6.05;84.75;101135.44;5589025;31;33749;-60
2023/10/17 04:55:22;;;;;;;5.82;3.42;;;;;;;6.27;97.30;101141.00;5601252;31;34299;-60
2023/10/17 04:58:40;;;;;;;6.72;3.50;;;;;;;5.99;89.19;101149.66;5585649;31;33714;-60
2023/10/17 05:01:53;;;;;;;6.53;3.20;;;;;;;6.03;78.57;101153.53;5596275;31;34294;-59
2023/10/17 05:08:21;;;;;;;7.47;3.45;;;;;;;5.93;78.58;101154.09;5581720;31;33757;-59
2023/10/17 06:18:31;;;;;;;10.02;5.05;;;;;;;6.63;74.07;101211.03;5566550;32;33436;-60
2023/10/17 06:21:38;;;;;;;10.40;5.43;;;;;;;6.62;73.53;101210.22;5565387;32;34335;-60
2023/10/17 06:34:33;;;;;;;12.63;7.15;;;;;;;6.93;72.77;101210.88;5563472;32;34235;-60
2023/10/17 06:37:36;;;;;;;10.75;6.32;;;;;;;7.19;74.61;101215.69;5564824;32;34810;-60
2023/10/17 06:40:45;;;;;;;10.57;6.28;;;;;;;7.28;71.05;101208.09;5558570;32;33866;-60
2023/10/17 06:43:49;;;;;;;18.65;7.43;;;;;;;7.32;75.93;101208.41;5566977;32;33570;-60
2023/10/17 06:53:11;;;;;;;13.57;8.02;;;;;;;8.16;83.70;101204.00;5561329;32;34217;-60
2023/10/17 06:56:15;;;;;;;12.73;7.15;;;;;;;8.20;74.44;101204.34;5562020;32;34220;-60
2023/10/17 06:59:35;;;;;;;12.00;7.87;;;;;;;8.46;100.00;101209.03;5566161;32;34418;-60
2023/10/17 07:02:47;;;;;;;13.10;7.47;;;;;;;8.53;92.23;101208.84;5563970;32;33390;-60
2023/10/17 07:05:51;;;;;;;16.35;7.75;;;;;;;8.38;73.62;101195.31;5553848;32;33566;-60
2023/10/17 07:08:53;;;;;;;13.02;7.72;;;;;;;8.49;71.87;101196.25;5548402;32;33678;-60
2023/10/17 07:12:02;;;;;;;10.70;6.82;;;;;;;8.46;73.04;101208.22;5556994;32;34489;-60
2023/10/17 07:15:12;;;;;;;12.02;6.93;;;;;;;8.59;73.77;101205.22;5560379;32;33948;-60
2023/10/17 07:25:01;;;;;;;9.82;6.00;;;;;;;9.57;77.23;101194.59;5560661;32;36136;-60
2023/10/17 07:28:04;;;;;;;8.40;5.72;;;;;;;9.44;65.96;101205.69;5561644;32;34193;-60
2023/10/17 07:31:10;;;;;;;9.27;5.47;;;;;;;9.44;64.27;101199.50;5558846;32;33473;-60
2023/10/17 07:43:46;;;;;;;9.07;5.65;;;;;;;10.56;79.73;101203.94;5559812;32;33190;-60
2023/10/17 07:46:50;;;;;;;12.27;5.53;;;;;;;10.91;94.60;101204.38;5561032;32;33686;-60
2023/10/17 07:49:52;;;;;;;12.75;5.00;;;;;;;10.29;60.78;101198.66;5562847;32;34009;-60
2023/10/17 07:53:05;;;;;;;10.80;5.80;;;;;;;10.15;68.57;101202.03;5559189;32;33633;-60
2023/10/17 07:56:13;;;;;;;6.97;4.82;;;;;;;10.49;65.53;101199.84;5555911;32;34295;-60
2023/10/17 07:59:18;;;;;;;8.73;5.05;;;;;;;10.54;75.49;101194.53;5560459;32;34436;-60
2023/10/17 08:02:23;;;;;;;8.25;5.28;;;;;;;10.79;82.71;101208.09;5563306;32;33804;-60
2023/10/17 08:05:26;;;;;;;8.80;5.78;;;;;;;10.72;68.81;101204.00;5562538;32;33735;-60
2023/10/17 08:08:35;;;;;;;12.48;6.32;;;;;;;11.05;73.92;101205.47;5565262;32;33656;-60
2023/10/17 08:11:37;;;;;;;11.00;5.82;;;;;;;11.18;69.01;101198.81;5563949;32;33907;-60
2023/10/17 08:14:44;;;;;;;8.38;5.85;;;;;;;11.08;62.50;101199.59;5561355;32;34288;-60
2023/10/17 08:17:48;;;;;;;7.65;5.05;;;;;;;11.11;77.10;101203.63;5559785;32;33221;-60
2023/10/17 08:21:07;;;;;;;9.55;5.30;;;;;;;11.39;89.88;101200.50;5564345;32;33586;-60
2023/10/17 08:24:10;;;;;;;8.93;5.47;;;;;;;11.44;81.95;101202.38;5564194;32;33909;-60
2023/10/17 08:30:25;;;;;;;50.33;10.20;;;;;;;11.64;64.33;101201.59;5564583;32;33537;-60
2023/10/17 08:34:12;;;;;;;16.67;5.50;;;;;;;11.60;78.92;101198.66;5565143;32;34361;-61
2023/10/17 08:37:19;;;;;;;9.02;5.60;;;;;;;11.63;63.58;101195.44;5557603;32;33848;-60
2023/10/17 08:43:41;;;;;;;8.05;5.10;;;;;;;11.53;64.31;101188.16;5562031;32;34296;-60
2023/10/17 08:46:43;;;;;;;10.95;4.90;;;;;;;11.66;60.61;101183.34;5558222;32;33136;-60
2023/10/17 08:49:48;;;;;;;8.43;5.50;;;;;;;11.48;60.53;101188.16;5560040;32;33394;-60
2023/10/17 08:52:51;;;;;;;10.55;5.00;;;;;;;11.41;71.26;101194.84;5555151;32;33411;-61
2023/10/17 08:55:53;;;;;;;8.38;4.75;;;;;;;11.51;67.19;101184.94;5555633;32;33890;-59
2023/10/17 08:59:03;;;;;;;7.30;4.18;;;;;;;11.68;72.20;101189.25;5551165;32;33642;-59
2023/10/17 09:02:29;;;;;;;9.27;4.20;;;;;;;11.49;56.12;101179.03;5556539;32;36094;-59
2023/10/17 09:05:32;;;;;;;8.15;4.30;;;;;;;11.39;55.37;101183.56;5554945;32;33828;-60
2023/10/17 09:12:19;;;;;;;8.50;4.65;;;;;;;11.68;58.41;101179.31;5545147;32;33790;-60
2023/10/17 09:15:30;;;;;;;7.00;4.50;;;;;;;11.84;54.70;101185.53;5556856;32;33303;-59
2023/10/17 09:18:39;;;;;;;7.90;4.00;;;;;;;11.67;51.64;101183.06;5564237;32;33264;-60
2023/10/17 09:21:47;;;;;;;9.43;4.10;;;;;;;11.56;50.88;101177.97;5559873;32;33666;-60
2023/10/17 09:24:50;;;;;;;6.65;3.78;;;;;;;11.42;54.73;101183.88;5560778;32;33646;-59
2023/10/17 09:27:53;;;;;;;11.48;5.12;;;;;;;11.84;52.15;101185.53;5565875;32;34340;-62
2023/10/17 09:31:06;;;;;;;8.45;4.45;;;;;;;11.82;58.45;101179.59;5557754;32;34217;-60
2023/10/17 09:34:13;;;;;;;14.87;5.93;;;;;;;12.11;52.48;101179.87;5557971;32;34087;-59
2023/10/17 09:37:16;;;;;;;14.77;4.68;;;;;;;12.04;56.00;101173.16;5555296;32;33748;-60
2023/10/17 09:40:30;;;;;;;11.82;5.32;;;;;;;12.13;52.41;101179.63;5560779;32;33751;-60
2023/10/17 09:43:33;;;;;;;14.70;5.10;;;;;;;12.35;73.53;101180.13;5554619;32;33321;-60
2023/10/17 09:46:37;;;;;;;7.47;4.82;;;;;;;12.23;51.93;101174.22;5560147;32;34964;-60
2023/10/17 09:49:44;;;;;;;10.93;5.00;;;;;;;12.32;64.16;101172.59;5560957;32;32356;-61
2023/10/17 09:52:53;;;;;;;7.40;4.87;;;;;;;12.45;52.19;101168.53;5562563;32;34324;-60
2023/10/17 09:56:01;;;;;;;9.38;4.75;;;;;;;12.34;51.56;101156.19;5551690;32;33360;-60
2023/10/17 09:59:19;;;;;;;10.23;4.93;;;;;;;12.23;55.14;101150.03;5561283;32;33793;-60
2023/10/17 10:02:21;;;;;;;9.07;4.62;;;;;;;12.51;64.47;101145.91;5555222;32;33744;-62
2023/10/17 10:05:28;;;;;;;13.43;5.28;;;;;;;12.56;56.52;101145.91;5562665;32;34248;-61
2023/10/17 10:08:32;;;;;;;11.35;4.65;;;;;;;12.75;52.21;101145.28;5553591;32;33697;-61
2023/10/17 10:11:50;;;;;;;9.07;4.97;;;;;;;12.71;50.18;101134.25;5559236;32;33438;-61
2023/10/17 10:14:53;;;;;;;9.82;4.60;;;;;;;12.64;53.95;101131.06;5563088;32;33376;-61
2023/10/17 10:17:55;;;;;;;9.82;5.00;;;;;;;12.80;61.93;101126.44;5557492;32;34255;-61
2023/10/17 10:20:58;;;;;;;10.77;4.97;;;;;;;12.90;64.31;101131.75;5561216;32;32194;-61
2023/10/17 10:24:01;;;;;;;7.95;5.32;;;;;;;12.93;61.53;101136.59;5556419;32;33843;-61
2023/10/17 10:27:24;;;;;;;8.73;5.53;;;;;;;13.23;63.78;101121.34;5565534;32;33101;-61
2023/10/17 10:30:31;;;;;;;9.25;5.03;;;;;;;13.25;61.23;101121.91;5554927;32;33709;-61
2023/10/17 10:33:35;;;;;;;7.95;4.95;;;;;;;13.03;53.49;101114.19;5556128;32;33728;-61
2023/10/17 10:36:39;;;;;;;7.03;4.82;;;;;;;13.06;50.83;101111.75;5554093;32;33608;-61
2023/10/17 10:40:16;;;;;;;7.50;5.07;;;;;;;12.93;52.82;101107.78;5553427;32;33266;-61
2023/10/17 10:43:19;;;;;;;9.82;5.60;;;;;;;13.42;66.02;101108.06;5556282;32;33261;-61
2023/10/17 10:46:22;;;;;;;8.07;4.70;;;;;;;13.03;48.67;101090.78;5562069;32;33373;-60
2023/10/17 10:49:29;;;;;;;7.78;4.65;;;;;;;13.08;57.38;101098.84;5555840;32;33334;-61
2023/10/17 10:52:32;;;;;;;7.12;4.65;;;;;;;13.34;63.73;101093.28;5561111;32;33326;-61
2023/10/17 10:55:35;;;;;;;8.52;4.40;;;;;;;13.38;53.79;101088.97;5562809;32;34395;-60
2023/10/17 10:58:51;;;;;;;8.23;4.68;;;;;;;13.67;62.04;101080.09;5561874;32;33714;-61
2023/10/17 11:01:54;;;;;;;10.27;4.78;;;;;;;13.64;61.18;101086.84;5560742;32;33696;-61
2023/10/17 11:04:56;;;;;;;7.78;4.85;;;;;;;13.35;48.15;101076.06;5556089;32;34343;-60
2023/10/17 11:08:00;;;;;;;8.07;4.15;;;;;;;13.09;48.22;101067.34;5562327;32;34044;-60
2023/10/17 11:11:06;;;;;;;10.48;4.57;;;;;;;13.10;49.61;101071.63;5564495;32;34474;-60
2023/10/17 11:14:16;;;;;;;7.12;4.57;;;;;;;13.30;48.61;101068.00;5560045;32;33527;-60
2023/10/17 11:17:18;;;;;;;7.85;4.82;;;;;;;13.19;47.82;101059.19;5554810;32;33341;-60
2023/10/17 11:20:22;;;;;;;9.02;4.22;;;;;;;12.97;48.05;101059.59;5559450;32;33684;-60
2023/10/17 11:23:27;;;;;;;7.78;4.72;;;;;;;13.37;57.72;101063.09;5555251;32;34331;-60
2023/10/17 11:26:33;;;;;;;10.60;4.18;;;;;;;13.29;51.27;101058.34;5562227;32;33662;-61
2023/10/17 11:29:36;;;;;;;9.50;4.60;;;;;;;13.50;55.82;101050.87;5558794;32;33969;-60
2023/10/17 11:32:40;;;;;;;7.82;4.20;;;;;;;13.61;48.30;101050.50;5562724;32;34063;-60
2023/10/17 11:35:50;;;;;;;8.35;3.75;;;;;;;13.45;46.27;101045.56;5555769;32;33786;-60
2023/10/17 11:38:56;;;;;;;6.20;3.60;;;;;;;13.41;49.06;101039.94;5552904;32;34081;-60
2023/10/17 11:41:59;;;;;;;8.52;3.65;;;;;;;13.60;53.15;101048.09;5559786;32;33669;-59
2023/10/17 11:45:18;;;;;;;7.68;4.35;;;;;;;13.61;50.89;101038.94;5555815;32;34058;-60
2023/10/17 11:48:40;;;;;;;7.15;4.25;;;;;;;13.70;55.59;101036.41;5559375;32;33619;-61
2023/10/17 11:51:48;;;;;;;9.15;4.22;;;;;;;13.85;57.00;101022.78;5556141;32;34103;-61
2023/10/17 11:54:55;;;;;;;8.27;4.28;;;;;;;13.78;55.20;101030.41;5559609;32;33757;-61
2023/10/17 11:57:58;;;;;;;6.12;3.80;;;;;;;13.52;49.04;101036.03;5561538;32;34143;-60
2023/10/17 12:01:02;;;;;;;8.38;3.72;;;;;;;13.51;49.63;101039.84;5561920;32;33341;-60
2023/10/17 12:04:09;;;;;;;5.93;4.00;;;;;;;13.55;47.72;101032.00;5560276;32;34285;-60
2023/10/17 12:07:11;;;;;;;5.97;3.65;;;;;;;13.71;51.28;101029.94;5558516;32;34046;-60
2023/10/17 12:10:15;;;;;;;7.10;4.20;;;;;;;13.78;59.52;101016.94;5565803;32;34437;-60
2023/10/17 12:13:19;;;;;;;6.90;3.50;;;;;;;13.76;48.49;101019.09;5561713;32;33644;-60
2023/10/17 12:16:23;;;;;;;10.07;3.80;;;;;;;14.07;64.82;101019.56;5563279;32;33690;-60
2023/10/17 12:19:26;;;;;;;8.57;3.80;;;;;;;14.08;55.97;101005.81;5563730;32;32219;-61
2023/10/17 12:22:31;;;;;;;7.90;3.87;;;;;;;13.96;48.38;101007.31;5561007;32;33623;-60
2023/10/17 12:25:34;;;;;;;7.55;3.90;;;;;;;13.95;54.62;100995.72;5564288;32;33716;-59
2023/10/17 12:28:36;;;;;;;5.97;3.37;;;;;;;14.05;50.64;101000.97;5565237;32;34907;-59
2023/10/17 12:31:39;;;;;;;7.40;3.67;;;;;;;14.23;51.63;100987.81;5561001;32;33728;-60
2023/10/17 12:34:42;;;;;;;7.37;3.70;;;;;;;14.30;54.23;100990.97;5565222;32;33221;-60
2023/10/17 12:37:44;;;;;;;6.12;3.30;;;;;;;14.38;55.05;100989.53;5566430;32;34251;-60
2023/10/17 12:40:47;;;;;;;5.93;3.28;;;;;;;14.16;46.70;100984.69;5560340;32;34447;-60
2023/10/17 12:43:49;;;;;;;11.23;3.25;;;;;;;14.20;50.92;100980.31;5567099;32;32440;-60
2023/10/17 12:46:52;;;;;;;6.00;3.50;;;;;;;14.10;46.84;100976.69;5565972;32;34360;-59
2023/10/17 12:49:54;;;;;;;6.30;3.10;;;;;;;14.09;52.42;100971.56;5557179;32;33324;-60
2023/10/17 12:52:57;;;;;;;4.82;3.33;;;;;;;14.00;48.72;100963.28;5565883;32;33566;-60
2023/10/17 12:55:59;;;;;;;7.50;3.33;;;;;;;14.00;45.12;100967.88;5568018;32;33190;-60
2023/10/17 12:59:03;;;;;;;5.93;3.62;;;;;;;13.95;56.07;100963.38;5563000;32;34416;-60
2023/10/17 13:02:05;;;;;;;6.15;3.40;;;;;;;13.97;47.67;100963.91;5564659;32;33715;-60
2023/10/17 13:05:09;;;;;;;4.95;2.72;;;;;;;13.98;43.88;100959.31;5553368;32;32328;-60
2023/10/17 13:08:14;;;;;;;7.97;3.00;;;;;;;13.97;51.57;100960.38;5554783;32;33208;-60
2023/10/17 13:11:17;;;;;;;5.60;3.33;;;;;;;14.09;48.05;100961.56;5562272;32;33676;-60
2023/10/17 13:14:19;;;;;;;6.28;2.95;;;;;;;13.77;45.46;100959.53;5555238;32;34295;-60
2023/10/17 13:17:22;;;;;;;5.80;2.83;;;;;;;13.77;48.33;100956.03;5561240;32;34399;-60
2023/10/17 13:20:32;;;;;;;10.07;3.50;;;;;;;13.86;50.38;100954.31;5562529;32;34416;-60
2023/10/17 13:23:56;;;;;;;6.55;3.20;;;;;;;13.79;47.10;100951.16;5553604;32;33642;-60
2023/10/17 13:26:59;;;;;;;4.72;2.95;;;;;;;13.85;45.64;100950.81;5555498;32;33720;-59
2023/10/17 13:30:22;;;;;;;5.55;2.97;;;;;;;13.97;68.99;100947.72;5561285;32;33658;-60
2023/10/17 13:33:24;;;;;;;7.53;3.00;;;;;;;14.00;58.64;100946.31;5559859;32;33753;-60
2023/10/17 13:36:27;;;;;;;6.57;3.22;;;;;;;14.09;53.05;100947.28;5554781;32;33634;-60
2023/10/17 13:39:32;;;;;;;8.85;3.03;;;;;;;14.03;50.16;100943.06;5557045;32;34499;-61
2023/10/17 13:42:35;;;;;;;7.95;3.08;;;;;;;13.95;52.96;100939.13;5558447;32;33636;-60
2023/10/17 13:45:41;;;;;;;4.75;3.20;;;;;;;14.16;63.37;100946.94;5557901;32;33724;-60
2023/10/17 13:48:50;;;;;;;7.43;3.28;;;;;;;14.32;54.57;100948.34;5567701;32;33204;-60
2023/10/17 13:51:54;;;;;;;5.72;3.37;;;;;;;14.31;44.24;100955.63;5559466;32;34419;-61
2023/10/17 13:54:58;;;;;;;6.20;3.67;;;;;;;14.19;46.01;100949.06;5553812;32;34418;-61
2023/10/17 13:58:03;;;;;;;5.18;3.25;;;;;;;14.08;42.90;100943.00;5561474;32;34132;-60
2023/10/17 14:01:27;;;;;;;6.73;3.07;;;;;;;14.10;54.96;100944.31;5566687;32;34494;-60
2023/10/17 14:04:28;;;;;;;12.25;3.08;;;;;;;13.94;47.41;100934.81;5556697;32;33320;-60
2023/10/17 14:07:30;;;;;;;9.48;3.72;;;;;;;13.97;49.48;100931.56;5558780;32;33694;-60
2023/10/17 14:10:33;;;;;;;17.12;3.85;;;;;;;13.85;57.41;100934.66;5562704;32;34339;-60
2023/10/17 14:13:38;;;;;;;8.30;3.10;;;;;;;13.84;49.04;100937.63;5558547;32;33733;-62
2023/10/17 14:16:40;;;;;;;9.07;3.10;;;;;;;13.81;51.41;100930.94;5566848;32;34032;-60
2023/10/17 14:19:46;;;;;;;8.95;3.50;;;;;;;13.84;48.90;100932.22;5560122;32;33635;-61
2023/10/17 14:26:12;;;;;;;7.68;3.37;;;;;;;13.81;48.94;100935.53;5557528;32;33680;-61
2023/10/17 14:29:14;;;;;;;5.20;2.78;;;;;;;13.79;51.66;100935.81;5558508;32;33671;-60
2023/10/17 14:32:20;;;;;;;5.90;2.70;;;;;;;13.69;52.90;100930.53;5560691;32;34482;-60
2023/10/17 14:35:22;;;;;;;5.55;2.65;;;;;;;13.63;50.40;100921.69;5558532;32;33317;-61
2023/10/17 14:38:25;;;;;;;8.70;2.97;;;;;;;13.59;60.17;100933.34;5564548;32;34542;-60
2023/10/17 14:41:28;;;;;;;5.20;3.15;;;;;;;13.55;51.79;100930.41;5569243;32;33643;-60
2023/10/17 14:44:30;;;;;;;8.32;2.80;;;;;;;13.47;58.05;100925.66;5568638;32;33932;-61
2023/10/17 14:47:35;;;;;;;8.02;3.00;;;;;;;13.44;48.67;100920.03;5568833;32;33368;-60
2023/10/17 14:50:39;;;;;;;8.63;3.03;;;;;;;13.46;53.01;100925.94;5568742;32;33779;-60
2023/10/17 14:53:43;;;;;;;7.93;3.00;;;;;;;13.43;57.65;100924.63;5568570;32;34365;-59
2023/10/17 14:56:53;;;;;;;12.52;3.20;;;;;;;13.42;55.76;100920.34;5567601;32;33799;-60
2023/10/17 14:59:55;;;;;;;7.28;3.47;;;;;;;13.36;57.38;100924.16;5568870;32;33810;-60
2023/10/17 15:02:59;;;;;;;8.70;3.05;;;;;;;13.25;51.50;100911.91;5568905;32;33714;-60
2023/10/17 15:06:03;;;;;;;7.95;2.92;;;;;;;13.20;61.55;100917.28;5568315;32;33869;-60
2023/10/17 15:09:14;;;;;;;5.87;3.20;;;;;;;13.14;59.02;100922.75;5568695;31;34349;-60
2023/10/17 15:12:17;;;;;;;6.35;2.85;;;;;;;13.05;54.21;100912.88;5568615;32;34325;-61
2023/10/17 15:15:19;;;;;;;5.85;2.78;;;;;;;13.00;53.06;100920.97;5569085;32;34286;-60
2023/10/17 15:18:22;;;;;;;6.07;2.62;;;;;;;12.86;57.29;100920.84;5568495;32;33634;-60
2023/10/17 15:21:26;;;;;;;4.45;2.80;;;;;;;12.86;54.68;100915.44;5569010;32;33608;-59
2023/10/17 15:24:29;;;;;;;10.40;3.08;;;;;;;12.81;55.10;100918.16;5568553;32;33629;-60
2023/10/17 15:27:32;;;;;;;6.22;3.05;;;;;;;12.76;59.47;100916.34;5568742;32;33832;-61
2023/10/17 15:30:34;;;;;;;4.78;2.90;;;;;;;12.79;72.97;100914.97;5568966;32;33314;-60
2023/10/17 15:33:39;;;;;;;6.93;3.10;;;;;;;12.70;56.11;100914.75;5568413;32;33623;-60
2023/10/17 15:36:42;;;;;;;5.03;2.42;;;;;;;12.67;63.32;100920.69;5568546;32;33709;-59
2023/10/17 15:39:46;;;;;;;9.18;3.03;;;;;;;12.58;57.21;100915.13;5568609;32;33620;-60
2023/10/17 15:42:49;;;;;;;8.57;3.10;;;;;;;12.54;56.25;100922.13;5568704;32;33634;-59
2023/10/17 15:45:54;;;;;;;6.82;3.50;;;;;;;12.51;55.77;100920.00;5568511;32;34460;-60
2023/10/17 15:48:57;;;;;;;6.33;2.97;;;;;;;12.43;59.36;100915.22;5568605;32;33623;-60
2023/10/17 15:51:59;;;;;;;7.25;3.20;;;;;;;12.39;58.56;100923.06;5568209;32;33620;-62
2023/10/17 15:55:02;;;;;;;5.28;3.37;;;;;;;12.40;63.73;100931.91;5568018;32;33466;-62
2023/10/17 15:58:04;;;;;;;7.87;3.55;;;;;;;12.42;60.23;100933.25;5568259;32;34242;-62
2023/10/17 16:01:07;;;;;;;7.15;3.72;;;;;;;12.39;57.53;100927.63;5567789;32;33674;-62
2023/10/17 16:04:10;;;;;;;6.45;3.22;;;;;;;12.38;56.76;100936.75;5568308;32;33685;-62
2023/10/17 16:07:14;;;;;;;6.53;3.53;;;;;;;12.32;56.44;100940.59;5567988;32;33675;-62
2023/10/17 16:10:16;;;;;;;6.43;3.15;;;;;;;12.22;57.58;100942.25;5568479;32;34443;-63
2023/10/17 16:13:19;;;;;;;8.40;3.12;;;;;;;12.28;60.78;100943.00;5567240;32;34433;-62
